sensor_id;sensor_type;location;lat;lon;timestamp;P1;durP1;ratioP1;P2;durP2;ratioP2
1174;SDS011;576;48.418;10.074;2023-02-21T00:00:17;3.23;;;2.27;;
1174;SDS011;576;48.418;10.074;2023-02-21T00:03:02;3.60;;;2.33;;
1174;SDS011;576;48.418;10.074;2023-02-21T00:05:48;2.60;;;2.40;;
1174;SDS011;576;48.418;10.074;2023-02-21T00:08:33;2.70;;;2.53;;
1174;SDS011;576;48.418;10.074;2023-02-21T00:11:19;3.00;;;2.37;;
1174;SDS011;576;48.418;10.074;2023-02-21T00:14:04;2.80;;;2.40;;
1174;SDS011;576;48.418;10.074;2023-02-21T00:16:51;3.07;;;2.77;;
1174;SDS011;576;48.418;10.074;2023-02-21T00:19:36;5.20;;;2.60;;
1174;SDS011;576;48.418;10.074;2023-02-21T00:22:22;2.43;;;2.23;;
1174;SDS011;576;48.418;10.074;2023-02-21T00:25:07;3.17;;;2.90;;
1174;SDS011;576;48.418;10.074;2023-02-21T00:27:53;4.00;;;2.63;;
1174;SDS011;576;48.418;10.074;2023-02-21T00:30:38;2.37;;;2.17;;
1174;SDS011;576;48.418;10.074;2023-02-21T00:33:25;3.27;;;2.17;;
1174;SDS011;576;48.418;10.074;2023-02-21T00:36:14;2.83;;;2.50;;
1174;SDS011;576;48.418;10.074;2023-02-21T00:39:00;3.23;;;2.97;;
1174;SDS011;576;48.418;10.074;2023-02-21T00:41:46;3.93;;;2.27;;
1174;SDS011;576;48.418;10.074;2023-02-21T00:44:31;2.57;;;2.37;;
1174;SDS011;576;48.418;10.074;2023-02-21T00:47:16;2.63;;;2.43;;
1174;SDS011;576;48.418;10.074;2023-02-21T00:50:03;5.67;;;2.60;;
1174;SDS011;576;48.418;10.074;2023-02-21T00:52:50;1.87;;;1.77;;
1174;SDS011;576;48.418;10.074;2023-02-21T00:55:35;4.57;;;2.27;;
1174;SDS011;576;48.418;10.074;2023-02-21T00:58:21;2.70;;;2.17;;
1174;SDS011;576;48.418;10.074;2023-02-21T01:01:06;2.80;;;2.17;;
1174;SDS011;576;48.418;10.074;2023-02-21T01:03:52;5.43;;;2.67;;
1174;SDS011;576;48.418;10.074;2023-02-21T01:06:39;2.70;;;2.30;;
1174;SDS011;576;48.418;10.074;2023-02-21T01:09:24;2.60;;;2.40;;
1174;SDS011;576;48.418;10.074;2023-02-21T01:12:10;3.47;;;2.90;;
1174;SDS011;576;48.418;10.074;2023-02-21T01:14:56;2.20;;;2.03;;
1174;SDS011;576;48.418;10.074;2023-02-21T01:17:41;2.80;;;1.83;;
1174;SDS011;576;48.418;10.074;2023-02-21T01:20:27;2.30;;;2.20;;
1174;SDS011;576;48.418;10.074;2023-02-21T01:23:13;2.17;;;2.07;;
1174;SDS011;576;48.418;10.074;2023-02-21T01:25:59;2.23;;;2.13;;
1174;SDS011;576;48.418;10.074;2023-02-21T01:28:46;2.97;;;2.70;;
1174;SDS011;576;48.418;10.074;2023-02-21T01:31:31;2.23;;;2.10;;
1174;SDS011;576;48.418;10.074;2023-02-21T01:34:16;2.43;;;2.23;;
1174;SDS011;576;48.418;10.074;2023-02-21T01:37:02;2.90;;;2.40;;
1174;SDS011;576;48.418;10.074;2023-02-21T01:39:49;2.60;;;2.40;;
1174;SDS011;576;48.418;10.074;2023-02-21T01:42:35;2.47;;;2.27;;
1174;SDS011;576;48.418;10.074;2023-02-21T01:45:38;2.37;;;2.17;;
1174;SDS011;576;48.418;10.074;2023-02-21T01:48:28;2.20;;;2.00;;
1174;SDS011;576;48.418;10.074;2023-02-21T01:51:17;2.60;;;2.20;;
1174;SDS011;576;48.418;10.074;2023-02-21T01:54:05;2.30;;;2.17;;
1174;SDS011;576;48.418;10.074;2023-02-21T01:56:54;2.97;;;2.67;;
1174;SDS011;576;48.418;10.074;2023-02-21T01:59:43;2.03;;;1.93;;
1174;SDS011;576;48.418;10.074;2023-02-21T02:02:40;2.20;;;2.10;;
1174;SDS011;576;48.418;10.074;2023-02-21T02:05:32;2.80;;;2.57;;
1174;SDS011;576;48.418;10.074;2023-02-21T02:08:19;2.50;;;2.30;;
1174;SDS011;576;48.418;10.074;2023-02-21T02:11:09;2.47;;;2.30;;
1174;SDS011;576;48.418;10.074;2023-02-21T02:14:08;2.53;;;2.33;;
1174;SDS011;576;48.418;10.074;2023-02-21T02:16:48;3.70;;;2.80;;
1174;SDS011;576;48.418;10.074;2023-02-21T02:25:55;2.47;;;2.27;;
1174;SDS011;576;48.418;10.074;2023-02-21T02:28:44;2.30;;;2.10;;
1174;SDS011;576;48.418;10.074;2023-02-21T02:31:37;2.30;;;2.20;;
1174;SDS011;576;48.418;10.074;2023-02-21T02:34:36;2.70;;;2.50;;
1174;SDS011;576;48.418;10.074;2023-02-21T02:37:16;2.60;;;2.40;;
1174;SDS011;576;48.418;10.074;2023-02-21T02:39:51;3.73;;;2.70;;
1174;SDS011;576;48.418;10.074;2023-02-21T02:42:30;2.57;;;2.37;;
1174;SDS011;576;48.418;10.074;2023-02-21T02:45:07;2.30;;;2.10;;
1174;SDS011;576;48.418;10.074;2023-02-21T02:47:42;2.37;;;2.23;;
1174;SDS011;576;48.418;10.074;2023-02-21T02:50:14;2.47;;;2.23;;
1174;SDS011;576;48.418;10.074;2023-02-21T02:52:50;1.80;;;1.70;;
1174;SDS011;576;48.418;10.074;2023-02-21T02:55:29;2.50;;;2.30;;
1174;SDS011;576;48.418;10.074;2023-02-21T02:58:02;2.20;;;2.00;;
1174;SDS011;576;48.418;10.074;2023-02-21T03:00:32;2.00;;;1.90;;
1174;SDS011;576;48.418;10.074;2023-02-21T03:03:10;4.50;;;2.27;;
1174;SDS011;576;48.418;10.074;2023-02-21T03:06:02;2.53;;;2.33;;
1174;SDS011;576;48.418;10.074;2023-02-21T03:08:43;2.30;;;1.97;;
1174;SDS011;576;48.418;10.074;2023-02-21T03:11:18;2.07;;;1.97;;
1174;SDS011;576;48.418;10.074;2023-02-21T03:13:50;2.10;;;1.90;;
1174;SDS011;576;48.418;10.074;2023-02-21T03:16:23;2.30;;;2.10;;
1174;SDS011;576;48.418;10.074;2023-02-21T03:18:56;2.40;;;2.20;;
1174;SDS011;576;48.418;10.074;2023-02-21T03:21:31;2.43;;;2.27;;
1174;SDS011;576;48.418;10.074;2023-02-21T03:24:06;3.43;;;3.13;;
1174;SDS011;576;48.418;10.074;2023-02-21T03:26:37;2.77;;;2.50;;
1174;SDS011;576;48.418;10.074;2023-02-21T03:29:24;1.97;;;1.87;;
1174;SDS011;576;48.418;10.074;2023-02-21T03:31:54;2.30;;;2.20;;
1174;SDS011;576;48.418;10.074;2023-02-21T03:34:26;3.40;;;2.30;;
1174;SDS011;576;48.418;10.074;2023-02-21T03:36:55;2.47;;;2.23;;
1174;SDS011;576;48.418;10.074;2023-02-21T03:39:24;2.47;;;2.20;;
1174;SDS011;576;48.418;10.074;2023-02-21T03:41:52;2.50;;;2.30;;
1174;SDS011;576;48.418;10.074;2023-02-21T03:44:20;3.40;;;2.60;;
1174;SDS011;576;48.418;10.074;2023-02-21T03:46:48;2.87;;;2.50;;
1174;SDS011;576;48.418;10.074;2023-02-21T03:49:16;2.80;;;2.60;;
1174;SDS011;576;48.418;10.074;2023-02-21T03:51:44;2.97;;;2.77;;
1174;SDS011;576;48.418;10.074;2023-02-21T03:54:14;2.93;;;2.73;;
1174;SDS011;576;48.418;10.074;2023-02-21T03:56:46;2.60;;;2.40;;
1174;SDS011;576;48.418;10.074;2023-02-21T03:59:27;2.93;;;2.73;;
1174;SDS011;576;48.418;10.074;2023-02-21T04:01:55;2.57;;;2.37;;
1174;SDS011;576;48.418;10.074;2023-02-21T04:04:25;2.53;;;2.33;;
1174;SDS011;576;48.418;10.074;2023-02-21T04:07:05;2.70;;;2.50;;
1174;SDS011;576;48.418;10.074;2023-02-21T04:09:35;2.03;;;1.80;;
1174;SDS011;576;48.418;10.074;2023-02-21T04:12:05;2.43;;;2.23;;
1174;SDS011;576;48.418;10.074;2023-02-21T04:14:36;3.00;;;2.70;;
1174;SDS011;576;48.418;10.074;2023-02-21T04:17:04;2.53;;;2.37;;
1174;SDS011;576;48.418;10.074;2023-02-21T04:19:32;2.70;;;2.50;;
1174;SDS011;576;48.418;10.074;2023-02-21T04:22:02;2.13;;;2.00;;
1174;SDS011;576;48.418;10.074;2023-02-21T04:24:30;2.57;;;2.37;;
1174;SDS011;576;48.418;10.074;2023-02-21T04:27:01;2.50;;;2.30;;
1174;SDS011;576;48.418;10.074;2023-02-21T04:29:34;2.30;;;2.10;;
1174;SDS011;576;48.418;10.074;2023-02-21T04:32:02;2.50;;;2.30;;
1174;SDS011;576;48.418;10.074;2023-02-21T04:34:32;2.00;;;1.90;;
1174;SDS011;576;48.418;10.074;2023-02-21T04:37:00;2.20;;;1.90;;
1174;SDS011;576;48.418;10.074;2023-02-21T04:39:29;2.67;;;2.43;;
1174;SDS011;576;48.418;10.074;2023-02-21T04:41:57;2.53;;;2.33;;
1174;SDS011;576;48.418;10.074;2023-02-21T04:44:26;3.30;;;2.70;;
1174;SDS011;576;48.418;10.074;2023-02-21T04:46:54;2.40;;;2.20;;
1174;SDS011;576;48.418;10.074;2023-02-21T04:49:23;2.53;;;2.33;;
1174;SDS011;576;48.418;10.074;2023-02-21T04:51:52;2.80;;;2.60;;
1174;SDS011;576;48.418;10.074;2023-02-21T04:54:21;2.90;;;2.07;;
1174;SDS011;576;48.418;10.074;2023-02-21T04:56:50;2.87;;;1.80;;
1174;SDS011;576;48.418;10.074;2023-02-21T04:59:18;2.70;;;2.50;;
1174;SDS011;576;48.418;10.074;2023-02-21T05:01:48;2.77;;;2.47;;
1174;SDS011;576;48.418;10.074;2023-02-21T05:04:16;2.40;;;2.20;;
1174;SDS011;576;48.418;10.074;2023-02-21T05:06:44;2.90;;;2.60;;
1174;SDS011;576;48.418;10.074;2023-02-21T05:09:12;2.43;;;2.27;;
1174;SDS011;576;48.418;10.074;2023-02-21T05:11:40;2.80;;;2.60;;
1174;SDS011;576;48.418;10.074;2023-02-21T05:14:08;2.47;;;2.37;;
1174;SDS011;576;48.418;10.074;2023-02-21T05:16:36;2.90;;;2.70;;
1174;SDS011;576;48.418;10.074;2023-02-21T05:19:06;2.30;;;2.10;;
1174;SDS011;576;48.418;10.074;2023-02-21T05:21:34;2.57;;;2.37;;
1174;SDS011;576;48.418;10.074;2023-02-21T05:24:04;2.30;;;2.10;;
1174;SDS011;576;48.418;10.074;2023-02-21T05:26:33;2.50;;;2.30;;
1174;SDS011;576;48.418;10.074;2023-02-21T05:29:03;2.20;;;2.00;;
1174;SDS011;576;48.418;10.074;2023-02-21T05:31:32;2.40;;;2.00;;
1174;SDS011;576;48.418;10.074;2023-02-21T05:34:00;2.63;;;2.33;;
1174;SDS011;576;48.418;10.074;2023-02-21T05:36:30;2.40;;;2.30;;
1174;SDS011;576;48.418;10.074;2023-02-21T05:38:58;1.70;;;1.60;;
1174;SDS011;576;48.418;10.074;2023-02-21T05:41:28;2.60;;;2.40;;
1174;SDS011;576;48.418;10.074;2023-02-21T05:43:57;2.40;;;2.27;;
1174;SDS011;576;48.418;10.074;2023-02-21T05:46:26;2.50;;;2.30;;
1174;SDS011;576;48.418;10.074;2023-02-21T05:48:56;2.90;;;2.70;;
1174;SDS011;576;48.418;10.074;2023-02-21T05:51:26;2.50;;;2.27;;
1174;SDS011;576;48.418;10.074;2023-02-21T05:53:56;2.47;;;2.27;;
1174;SDS011;576;48.418;10.074;2023-02-21T05:56:24;3.20;;;2.43;;
1174;SDS011;576;48.418;10.074;2023-02-21T05:58:52;2.50;;;2.20;;
1174;SDS011;576;48.418;10.074;2023-02-21T06:01:20;2.30;;;2.10;;
1174;SDS011;576;48.418;10.074;2023-02-21T06:03:48;2.33;;;2.13;;
1174;SDS011;576;48.418;10.074;2023-02-21T06:06:17;2.10;;;1.90;;
1174;SDS011;576;48.418;10.074;2023-02-21T06:08:46;2.90;;;2.40;;
1174;SDS011;576;48.418;10.074;2023-02-21T06:11:20;2.30;;;2.20;;
1174;SDS011;576;48.418;10.074;2023-02-21T06:13:50;2.50;;;2.30;;
1174;SDS011;576;48.418;10.074;2023-02-21T06:16:19;3.40;;;2.73;;
1174;SDS011;576;48.418;10.074;2023-02-21T06:18:49;2.80;;;2.47;;
1174;SDS011;576;48.418;10.074;2023-02-21T06:21:17;2.50;;;2.30;;
1174;SDS011;576;48.418;10.074;2023-02-21T06:23:45;4.17;;;1.90;;
1174;SDS011;576;48.418;10.074;2023-02-21T06:26:15;2.63;;;2.40;;
1174;SDS011;576;48.418;10.074;2023-02-21T06:28:46;2.17;;;2.07;;
1174;SDS011;576;48.418;10.074;2023-02-21T06:31:14;2.60;;;2.40;;
1174;SDS011;576;48.418;10.074;2023-02-21T06:33:43;2.30;;;2.10;;
1174;SDS011;576;48.418;10.074;2023-02-21T06:36:13;3.10;;;2.90;;
1174;SDS011;576;48.418;10.074;2023-02-21T06:38:44;2.40;;;2.07;;
1174;SDS011;576;48.418;10.074;2023-02-21T06:41:13;2.70;;;2.47;;
1174;SDS011;576;48.418;10.074;2023-02-21T06:43:44;2.23;;;2.07;;
1174;SDS011;576;48.418;10.074;2023-02-21T06:46:14;3.03;;;2.37;;
1174;SDS011;576;48.418;10.074;2023-02-21T06:48:44;2.13;;;2.03;;
1174;SDS011;576;48.418;10.074;2023-02-21T06:51:12;2.40;;;2.23;;
1174;SDS011;576;48.418;10.074;2023-02-21T06:53:41;2.83;;;2.63;;
1174;SDS011;576;48.418;10.074;2023-02-21T06:56:10;1.97;;;1.87;;
1174;SDS011;576;48.418;10.074;2023-02-21T06:58:38;2.40;;;2.20;;
1174;SDS011;576;48.418;10.074;2023-02-21T07:01:07;3.13;;;2.13;;
1174;SDS011;576;48.418;10.074;2023-02-21T07:03:37;2.40;;;2.20;;
1174;SDS011;576;48.418;10.074;2023-02-21T07:06:08;2.00;;;1.90;;
1174;SDS011;576;48.418;10.074;2023-02-21T07:08:36;2.50;;;2.00;;
1174;SDS011;576;48.418;10.074;2023-02-21T07:11:08;2.00;;;1.90;;
1174;SDS011;576;48.418;10.074;2023-02-21T07:13:36;2.40;;;2.20;;
1174;SDS011;576;48.418;10.074;2023-02-21T07:16:05;2.00;;;1.90;;
1174;SDS011;576;48.418;10.074;2023-02-21T07:18:35;2.70;;;2.50;;
1174;SDS011;576;48.418;10.074;2023-02-21T07:21:03;2.13;;;2.03;;
1174;SDS011;576;48.418;10.074;2023-02-21T07:23:31;2.10;;;2.00;;
1174;SDS011;576;48.418;10.074;2023-02-21T07:25:59;2.50;;;2.30;;
1174;SDS011;576;48.418;10.074;2023-02-21T07:28:27;2.50;;;2.30;;
1174;SDS011;576;48.418;10.074;2023-02-21T07:30:56;2.47;;;2.13;;
1174;SDS011;576;48.418;10.074;2023-02-21T07:33:24;1.97;;;1.87;;
1174;SDS011;576;48.418;10.074;2023-02-21T07:35:53;2.20;;;2.00;;
1174;SDS011;576;48.418;10.074;2023-02-21T07:38:22;2.07;;;1.90;;
1174;SDS011;576;48.418;10.074;2023-02-21T07:40:53;2.30;;;2.20;;
1174;SDS011;576;48.418;10.074;2023-02-21T07:43:21;1.80;;;1.70;;
1174;SDS011;576;48.418;10.074;2023-02-21T07:45:51;2.77;;;2.33;;
1174;SDS011;576;48.418;10.074;2023-02-21T07:48:19;3.93;;;2.17;;
1174;SDS011;576;48.418;10.074;2023-02-21T07:50:47;2.13;;;2.03;;
1174;SDS011;576;48.418;10.074;2023-02-21T07:53:17;1.93;;;1.60;;
1174;SDS011;576;48.418;10.074;2023-02-21T07:55:45;1.93;;;1.83;;
1174;SDS011;576;48.418;10.074;2023-02-21T07:58:13;1.67;;;1.57;;
1174;SDS011;576;48.418;10.074;2023-02-21T08:00:41;2.00;;;1.90;;
1174;SDS011;576;48.418;10.074;2023-02-21T08:03:10;2.77;;;2.00;;
1174;SDS011;576;48.418;10.074;2023-02-21T08:05:39;2.07;;;1.87;;
1174;SDS011;576;48.418;10.074;2023-02-21T08:08:07;2.20;;;2.10;;
1174;SDS011;576;48.418;10.074;2023-02-21T08:10:37;2.37;;;1.80;;
1174;SDS011;576;48.418;10.074;2023-02-21T08:13:05;2.37;;;2.17;;
1174;SDS011;576;48.418;10.074;2023-02-21T08:15:34;2.07;;;1.97;;
1174;SDS011;576;48.418;10.074;2023-02-21T08:18:02;2.23;;;2.00;;
1174;SDS011;576;48.418;10.074;2023-02-21T08:20:30;2.43;;;1.97;;
1174;SDS011;576;48.418;10.074;2023-02-21T08:22:59;2.20;;;2.00;;
1174;SDS011;576;48.418;10.074;2023-02-21T08:25:27;4.57;;;2.00;;
1174;SDS011;576;48.418;10.074;2023-02-21T08:27:58;2.50;;;2.30;;
1174;SDS011;576;48.418;10.074;2023-02-21T08:30:37;2.50;;;2.30;;
1174;SDS011;576;48.418;10.074;2023-02-21T08:33:05;2.10;;;1.90;;
1174;SDS011;576;48.418;10.074;2023-02-21T08:35:34;3.93;;;1.87;;
1174;SDS011;576;48.418;10.074;2023-02-21T08:38:02;2.90;;;2.57;;
1174;SDS011;576;48.418;10.074;2023-02-21T08:40:30;2.47;;;2.27;;
1174;SDS011;576;48.418;10.074;2023-02-21T08:43:00;4.73;;;2.20;;
1174;SDS011;576;48.418;10.074;2023-02-21T08:45:30;2.37;;;2.20;;
1174;SDS011;576;48.418;10.074;2023-02-21T08:47:59;2.30;;;2.10;;
1174;SDS011;576;48.418;10.074;2023-02-21T08:50:27;2.63;;;2.43;;
1174;SDS011;576;48.418;10.074;2023-02-21T08:52:55;2.93;;;2.20;;
1174;SDS011;576;48.418;10.074;2023-02-21T08:55:23;3.33;;;2.60;;
1174;SDS011;576;48.418;10.074;2023-02-21T08:57:52;2.97;;;2.57;;
1174;SDS011;576;48.418;10.074;2023-02-21T09:00:22;2.67;;;2.37;;
1174;SDS011;576;48.418;10.074;2023-02-21T09:02:54;3.47;;;2.90;;
1174;SDS011;576;48.418;10.074;2023-02-21T09:05:23;3.20;;;2.90;;
1174;SDS011;576;48.418;10.074;2023-02-21T09:07:53;3.60;;;2.93;;
1174;SDS011;576;48.418;10.074;2023-02-21T09:10:24;4.23;;;2.50;;
1174;SDS011;576;48.418;10.074;2023-02-21T09:12:53;4.33;;;2.63;;
1174;SDS011;576;48.418;10.074;2023-02-21T09:15:23;3.53;;;2.60;;
1174;SDS011;576;48.418;10.074;2023-02-21T09:17:51;3.10;;;2.73;;
1174;SDS011;576;48.418;10.074;2023-02-21T09:20:21;2.37;;;2.23;;
1174;SDS011;576;48.418;10.074;2023-02-21T09:22:50;2.43;;;2.23;;
1174;SDS011;576;48.418;10.074;2023-02-21T09:25:19;3.77;;;1.90;;
1174;SDS011;576;48.418;10.074;2023-02-21T09:27:49;3.07;;;2.00;;
1174;SDS011;576;48.418;10.074;2023-02-21T09:30:21;4.43;;;2.67;;
1174;SDS011;576;48.418;10.074;2023-02-21T09:32:52;4.50;;;2.10;;
1174;SDS011;576;48.418;10.074;2023-02-21T09:35:21;2.70;;;2.40;;
1174;SDS011;576;48.418;10.074;2023-02-21T09:37:50;6.17;;;3.13;;
1174;SDS011;576;48.418;10.074;2023-02-21T09:40:20;6.10;;;3.27;;
1174;SDS011;576;48.418;10.074;2023-02-21T09:42:56;4.90;;;2.80;;
1174;SDS011;576;48.418;10.074;2023-02-21T09:45:29;4.33;;;3.10;;
1174;SDS011;576;48.418;10.074;2023-02-21T09:48:00;3.80;;;2.17;;
1174;SDS011;576;48.418;10.074;2023-02-21T09:50:33;3.67;;;3.33;;
1174;SDS011;576;48.418;10.074;2023-02-21T09:53:06;5.50;;;3.30;;
1174;SDS011;576;48.418;10.074;2023-02-21T09:55:35;4.13;;;2.33;;
1174;SDS011;576;48.418;10.074;2023-02-21T09:58:08;5.00;;;3.03;;
1174;SDS011;576;48.418;10.074;2023-02-21T10:00:40;5.33;;;3.30;;
1174;SDS011;576;48.418;10.074;2023-02-21T10:03:23;3.23;;;2.93;;
1174;SDS011;576;48.418;10.074;2023-02-21T10:06:04;2.80;;;2.30;;
1174;SDS011;576;48.418;10.074;2023-02-21T10:08:40;3.53;;;2.50;;
1174;SDS011;576;48.418;10.074;2023-02-21T10:11:19;2.60;;;2.40;;
1174;SDS011;576;48.418;10.074;2023-02-21T10:13:59;2.97;;;2.67;;
1174;SDS011;576;48.418;10.074;2023-02-21T10:16:34;3.30;;;2.40;;
1174;SDS011;576;48.418;10.074;2023-02-21T10:19:08;5.43;;;2.80;;
1174;SDS011;576;48.418;10.074;2023-02-21T10:21:43;3.07;;;2.27;;
1174;SDS011;576;48.418;10.074;2023-02-21T10:24:14;2.07;;;1.80;;
1174;SDS011;576;48.418;10.074;2023-02-21T10:26:47;5.00;;;2.27;;
1174;SDS011;576;48.418;10.074;2023-02-21T10:29:21;2.10;;;1.90;;
1174;SDS011;576;48.418;10.074;2023-02-21T10:31:55;3.90;;;2.37;;
1174;SDS011;576;48.418;10.074;2023-02-21T10:34:28;2.33;;;2.10;;
1174;SDS011;576;48.418;10.074;2023-02-21T10:37:00;2.20;;;2.10;;
1174;SDS011;576;48.418;10.074;2023-02-21T10:39:32;3.50;;;2.77;;
1174;SDS011;576;48.418;10.074;2023-02-21T10:42:03;4.47;;;2.73;;
1174;SDS011;576;48.418;10.074;2023-02-21T10:44:31;3.40;;;2.50;;
1174;SDS011;576;48.418;10.074;2023-02-21T10:47:05;2.40;;;2.20;;
1174;SDS011;576;48.418;10.074;2023-02-21T10:49:43;2.43;;;2.20;;
1174;SDS011;576;48.418;10.074;2023-02-21T10:52:17;4.07;;;2.40;;
1174;SDS011;576;48.418;10.074;2023-02-21T10:54:59;3.00;;;2.07;;
1174;SDS011;576;48.418;10.074;2023-02-21T10:57:29;2.43;;;2.23;;
1174;SDS011;576;48.418;10.074;2023-02-21T11:00:00;7.00;;;1.80;;
1174;SDS011;576;48.418;10.074;2023-02-21T11:02:37;2.30;;;2.00;;
1174;SDS011;576;48.418;10.074;2023-02-21T11:05:08;3.53;;;2.37;;
1174;SDS011;576;48.418;10.074;2023-02-21T11:07:39;6.23;;;2.10;;
1174;SDS011;576;48.418;10.074;2023-02-21T11:10:28;3.07;;;2.10;;
1174;SDS011;576;48.418;10.074;2023-02-21T11:13:06;1.90;;;1.80;;
1174;SDS011;576;48.418;10.074;2023-02-21T11:15:40;2.40;;;1.57;;
1174;SDS011;576;48.418;10.074;2023-02-21T11:18:15;2.40;;;2.20;;
1174;SDS011;576;48.418;10.074;2023-02-21T11:20:45;2.33;;;2.13;;
1174;SDS011;576;48.418;10.074;2023-02-21T11:23:17;2.60;;;2.20;;
1174;SDS011;576;48.418;10.074;2023-02-21T11:25:54;2.53;;;2.23;;
1174;SDS011;576;48.418;10.074;2023-02-21T11:28:26;2.37;;;2.17;;
1174;SDS011;576;48.418;10.074;2023-02-21T11:31:05;2.57;;;2.27;;
1174;SDS011;576;48.418;10.074;2023-02-21T11:33:43;3.70;;;2.23;;
1174;SDS011;576;48.418;10.074;2023-02-21T11:36:17;2.40;;;2.03;;
1174;SDS011;576;48.418;10.074;2023-02-21T11:38:58;1.67;;;1.57;;
1174;SDS011;576;48.418;10.074;2023-02-21T11:41:32;2.27;;;1.93;;
1174;SDS011;576;48.418;10.074;2023-02-21T11:44:17;4.67;;;2.00;;
1174;SDS011;576;48.418;10.074;2023-02-21T11:46:54;2.90;;;2.10;;
1174;SDS011;576;48.418;10.074;2023-02-21T11:49:35;3.63;;;3.23;;
1174;SDS011;576;48.418;10.074;2023-02-21T11:52:08;3.30;;;2.83;;
1174;SDS011;576;48.418;10.074;2023-02-21T11:54:40;7.60;;;5.50;;
1174;SDS011;576;48.418;10.074;2023-02-21T11:57:13;8.30;;;6.80;;
1174;SDS011;576;48.418;10.074;2023-02-21T11:59:50;8.70;;;5.73;;
1174;SDS011;576;48.418;10.074;2023-02-21T12:05:40;7.30;;;5.37;;
1174;SDS011;576;48.418;10.074;2023-02-21T12:11:12;10.63;;;7.60;;
1174;SDS011;576;48.418;10.074;2023-02-21T12:13:52;13.60;;;7.67;;
1174;SDS011;576;48.418;10.074;2023-02-21T12:16:32;9.53;;;7.57;;
1174;SDS011;576;48.418;10.074;2023-02-21T12:19:13;12.53;;;8.13;;
1174;SDS011;576;48.418;10.074;2023-02-21T12:24:45;13.07;;;7.73;;
1174;SDS011;576;48.418;10.074;2023-02-21T12:27:25;10.60;;;7.60;;
1174;SDS011;576;48.418;10.074;2023-02-21T12:30:03;12.63;;;7.80;;
1174;SDS011;576;48.418;10.074;2023-02-21T12:32:46;16.43;;;7.60;;
1174;SDS011;576;48.418;10.074;2023-02-21T12:35:27;11.83;;;7.40;;
1174;SDS011;576;48.418;10.074;2023-02-21T12:38:11;11.47;;;8.67;;
1174;SDS011;576;48.418;10.074;2023-02-21T12:40:47;15.90;;;10.03;;
1174;SDS011;576;48.418;10.074;2023-02-21T12:43:29;41.80;;;28.10;;
1174;SDS011;576;48.418;10.074;2023-02-21T12:46:09;26.43;;;16.87;;
1174;SDS011;576;48.418;10.074;2023-02-21T12:48:46;26.00;;;14.83;;
1174;SDS011;576;48.418;10.074;2023-02-21T12:51:21;19.90;;;12.43;;
1174;SDS011;576;48.418;10.074;2023-02-21T12:53:55;18.10;;;10.73;;
1174;SDS011;576;48.418;10.074;2023-02-21T12:56:29;13.30;;;8.40;;
1174;SDS011;576;48.418;10.074;2023-02-21T12:59:02;10.70;;;6.87;;
1174;SDS011;576;48.418;10.074;2023-02-21T13:01:39;9.40;;;6.60;;
1174;SDS011;576;48.418;10.074;2023-02-21T13:04:14;8.00;;;5.50;;
1174;SDS011;576;48.418;10.074;2023-02-21T13:06:51;5.70;;;4.30;;
1174;SDS011;576;48.418;10.074;2023-02-21T13:09:27;6.17;;;4.33;;
1174;SDS011;576;48.418;10.074;2023-02-21T13:12:02;4.97;;;3.73;;
1174;SDS011;576;48.418;10.074;2023-02-21T13:14:36;7.23;;;4.57;;
1174;SDS011;576;48.418;10.074;2023-02-21T13:17:08;4.50;;;3.43;;
1174;SDS011;576;48.418;10.074;2023-02-21T13:19:41;6.10;;;3.73;;
1174;SDS011;576;48.418;10.074;2023-02-21T13:29:08;3.50;;;3.00;;
1174;SDS011;576;48.418;10.074;2023-02-21T13:31:42;6.70;;;3.43;;
1174;SDS011;576;48.418;10.074;2023-02-21T13:34:12;3.00;;;2.17;;
1174;SDS011;576;48.418;10.074;2023-02-21T13:36:46;5.13;;;2.90;;
1174;SDS011;576;48.418;10.074;2023-02-21T13:39:16;4.80;;;2.83;;
1174;SDS011;576;48.418;10.074;2023-02-21T13:41:47;3.20;;;2.80;;
1174;SDS011;576;48.418;10.074;2023-02-21T13:44:24;2.93;;;2.17;;
1174;SDS011;576;48.418;10.074;2023-02-21T13:47:12;3.00;;;2.77;;
1174;SDS011;576;48.418;10.074;2023-02-21T13:49:45;3.37;;;2.33;;
1174;SDS011;576;48.418;10.074;2023-02-21T13:52:34;4.83;;;2.30;;
1174;SDS011;576;48.418;10.074;2023-02-21T13:55:20;4.70;;;2.53;;
1174;SDS011;576;48.418;10.074;2023-02-21T14:01:17;3.23;;;1.83;;
1174;SDS011;576;48.418;10.074;2023-02-21T14:04:00;2.50;;;2.30;;
1174;SDS011;576;48.418;10.074;2023-02-21T14:07:08;2.90;;;2.27;;
1174;SDS011;576;48.418;10.074;2023-02-21T14:09:37;4.67;;;2.63;;
1174;SDS011;576;48.418;10.074;2023-02-21T14:12:07;3.53;;;2.40;;
1174;SDS011;576;48.418;10.074;2023-02-21T14:14:41;4.57;;;2.93;;
1174;SDS011;576;48.418;10.074;2023-02-21T14:17:11;3.67;;;2.53;;
1174;SDS011;576;48.418;10.074;2023-02-21T14:19:41;5.13;;;2.47;;
1174;SDS011;576;48.418;10.074;2023-02-21T14:22:16;4.10;;;2.83;;
1174;SDS011;576;48.418;10.074;2023-02-21T14:24:51;3.30;;;2.47;;
1174;SDS011;576;48.418;10.074;2023-02-21T14:27:34;4.10;;;2.97;;
1174;SDS011;576;48.418;10.074;2023-02-21T14:30:15;3.53;;;3.03;;
1174;SDS011;576;48.418;10.074;2023-02-21T14:33:06;3.30;;;2.53;;
1174;SDS011;576;48.418;10.074;2023-02-21T14:35:45;6.97;;;3.10;;
1174;SDS011;576;48.418;10.074;2023-02-21T14:38:20;3.17;;;2.57;;
1174;SDS011;576;48.418;10.074;2023-02-21T14:40:56;6.40;;;3.33;;
1174;SDS011;576;48.418;10.074;2023-02-21T14:43:35;5.63;;;2.37;;
1174;SDS011;576;48.418;10.074;2023-02-21T14:52:30;4.53;;;2.63;;
1174;SDS011;576;48.418;10.074;2023-02-21T14:55:18;2.87;;;2.40;;
1174;SDS011;576;48.418;10.074;2023-02-21T14:58:21;3.20;;;2.00;;
1174;SDS011;576;48.418;10.074;2023-02-21T15:01:02;2.77;;;2.10;;
1174;SDS011;576;48.418;10.074;2023-02-21T15:03:36;2.13;;;1.90;;
1174;SDS011;576;48.418;10.074;2023-02-21T15:06:11;2.50;;;2.30;;
1174;SDS011;576;48.418;10.074;2023-02-21T15:08:47;3.00;;;2.20;;
1174;SDS011;576;48.418;10.074;2023-02-21T15:11:19;2.23;;;2.00;;
1174;SDS011;576;48.418;10.074;2023-02-21T15:16:39;3.80;;;2.53;;
1174;SDS011;576;48.418;10.074;2023-02-21T15:19:17;4.37;;;2.27;;
1174;SDS011;576;48.418;10.074;2023-02-21T15:24:57;6.53;;;4.40;;
1174;SDS011;576;48.418;10.074;2023-02-21T15:27:28;6.87;;;4.10;;
1174;SDS011;576;48.418;10.074;2023-02-21T15:30:03;15.40;;;9.83;;
1174;SDS011;576;48.418;10.074;2023-02-21T15:32:33;11.17;;;6.67;;
1174;SDS011;576;48.418;10.074;2023-02-21T15:35:02;10.43;;;5.40;;
1174;SDS011;576;48.418;10.074;2023-02-21T15:37:32;6.50;;;4.00;;
1174;SDS011;576;48.418;10.074;2023-02-21T15:40:04;7.00;;;3.20;;
1174;SDS011;576;48.418;10.074;2023-02-21T15:42:42;3.90;;;3.57;;
1174;SDS011;576;48.418;10.074;2023-02-21T15:45:15;9.87;;;4.27;;
1174;SDS011;576;48.418;10.074;2023-02-21T15:47:45;6.73;;;3.10;;
1174;SDS011;576;48.418;10.074;2023-02-21T15:50:15;4.30;;;3.00;;
1174;SDS011;576;48.418;10.074;2023-02-21T15:52:50;4.93;;;3.60;;
1174;SDS011;576;48.418;10.074;2023-02-21T15:55:28;4.63;;;3.13;;
1174;SDS011;576;48.418;10.074;2023-02-21T15:57:59;8.70;;;4.00;;
1174;SDS011;576;48.418;10.074;2023-02-21T16:00:30;5.40;;;3.60;;
1174;SDS011;576;48.418;10.074;2023-02-21T16:05:53;4.07;;;3.37;;
1174;SDS011;576;48.418;10.074;2023-02-21T16:08:34;5.03;;;3.70;;
1174;SDS011;576;48.418;10.074;2023-02-21T16:11:05;4.30;;;2.60;;
1174;SDS011;576;48.418;10.074;2023-02-21T16:13:35;7.63;;;3.13;;
1174;SDS011;576;48.418;10.074;2023-02-21T16:16:04;6.20;;;3.17;;
1174;SDS011;576;48.418;10.074;2023-02-21T16:18:34;2.40;;;2.20;;
1174;SDS011;576;48.418;10.074;2023-02-21T16:21:03;3.47;;;2.60;;
1174;SDS011;576;48.418;10.074;2023-02-21T16:23:34;3.07;;;2.60;;
1174;SDS011;576;48.418;10.074;2023-02-21T16:26:18;4.37;;;3.47;;
1174;SDS011;576;48.418;10.074;2023-02-21T16:28:54;4.17;;;3.83;;
1174;SDS011;576;48.418;10.074;2023-02-21T16:31:26;4.30;;;3.57;;
1174;SDS011;576;48.418;10.074;2023-02-21T16:33:55;4.10;;;3.70;;
1174;SDS011;576;48.418;10.074;2023-02-21T16:36:25;4.17;;;2.90;;
1174;SDS011;576;48.418;10.074;2023-02-21T16:38:55;3.27;;;2.33;;
1174;SDS011;576;48.418;10.074;2023-02-21T16:41:25;4.30;;;2.73;;